Time;durP1;ratioP1;P1;durP2;ratioP2;P2;SDS_P1;SDS_P2;PMS_P1;PMS_P2;Temp;Humidity;BMP_temperature;BMP_pressure;BME280_temperature;BME280_humidity;BME280_pressure;Samples;Min_cycle;Max_cycle;Signal;HPM_P1;HPM_P2
2022/04/13 00:02:23;;;;;;;1.05;1.05;;;;;;;;;;5077654;28;20661;-84
2022/04/13 00:04:50;;;;;;;1.00;0.90;;;;;;;;;;5079363;28;20204;-85
2022/04/13 00:07:19;;;;;;;1.10;1.10;;;;;;;;;;5080717;28;20252;-85
2022/04/13 00:09:46;;;;;;;0.93;0.93;;;;;;;;;;5079312;28;20760;-85
2022/04/13 00:12:14;;;;;;;1.20;1.20;;;;;;;;;;5079690;28;20211;-85
2022/04/13 00:14:41;;;;;;;0.90;0.90;;;;;;;;;;5080401;28;20197;-83
2022/04/13 00:17:08;;;;;;;2.78;1.52;;;;;;;;;;5080417;28;20667;-84
2022/04/13 00:19:36;;;;;;;1.00;0.90;;;;;;;;;;5080365;28;20211;-84
2022/04/13 00:22:03;;;;;;;1.33;1.23;;;;;;;;;;5079837;28;20661;-84
2022/04/13 00:24:32;;;;;;;0.80;0.80;;;;;;;;;;5079129;28;20212;-85
2022/04/13 00:26:59;;;;;;;0.63;0.63;;;;;;;;;;5079001;28;20225;-84
2022/04/13 00:29:29;;;;;;;0.82;0.82;;;;;;;;;;5078724;28;20239;-85
2022/04/13 00:31:58;;;;;;;0.73;0.73;;;;;;;;;;5080104;28;20247;-85
2022/04/13 00:34:25;;;;;;;0.75;0.75;;;;;;;;;;5081001;28;20200;-86
2022/04/13 00:36:53;;;;;;;0.85;0.60;;;;;;;;;;5080205;28;20224;-85
2022/04/13 00:39:20;;;;;;;0.88;0.88;;;;;;;;;;5078976;28;20205;-83
2022/04/13 00:41:49;;;;;;;0.70;0.70;;;;;;;;;;5078933;28;20685;-85
2022/04/13 00:44:16;;;;;;;0.60;0.60;;;;;;;;;;5078903;28;20201;-84
2022/04/13 00:46:43;;;;;;;0.80;0.80;;;;;;;;;;5080809;28;20243;-84
2022/04/13 00:49:11;;;;;;;0.80;0.80;;;;;;;;;;5078301;28;20202;-84
2022/04/13 00:51:38;;;;;;;0.82;0.80;;;;;;;;;;5059917;28;20217;-84
2022/04/13 00:54:06;;;;;;;0.63;0.63;;;;;;;;;;5059349;28;20202;-84
2022/04/13 00:56:34;;;;;;;0.90;0.73;;;;;;;;;;5059511;28;20279;-85
2022/04/13 00:59:09;;;;;;;0.70;0.70;;;;;;;;;;5059655;28;20193;-84
2022/04/13 01:01:38;;;;;;;0.68;0.68;;;;;;;;;;5060034;28;20189;-84
2022/04/13 01:04:07;;;;;;;0.70;0.70;;;;;;;;;;5060493;28;20209;-84
2022/04/13 01:06:35;;;;;;;0.70;0.70;;;;;;;;;;5057931;28;20232;-83
2022/04/13 01:09:03;;;;;;;0.60;0.60;;;;;;;;;;5059251;28;20198;-83
2022/04/13 01:11:30;;;;;;;0.80;0.80;;;;;;;;;;5059908;28;20263;-83
2022/04/13 01:13:58;;;;;;;0.85;0.82;;;;;;;;;;5058296;28;20197;-85
2022/04/13 01:16:27;;;;;;;1.10;1.10;;;;;;;;;;5059760;28;20661;-84
2022/04/13 01:18:55;;;;;;;0.70;0.70;;;;;;;;;;5061515;28;20344;-83
2022/04/13 01:21:42;;;;;;;0.82;0.82;;;;;;;;;;5061757;28;20208;-84
2022/04/13 01:24:11;;;;;;;2.85;0.80;;;;;;;;;;5063072;28;20608;-84
2022/04/13 01:26:38;;;;;;;0.60;0.60;;;;;;;;;;5059171;28;20225;-84
2022/04/13 01:29:06;;;;;;;0.70;0.70;;;;;;;;;;5059067;28;20209;-84
2022/04/13 01:31:34;;;;;;;0.98;0.98;;;;;;;;;;5060935;28;20225;-84
2022/04/13 01:34:02;;;;;;;0.50;0.50;;;;;;;;;;5061026;28;20205;-83
2022/04/13 01:36:30;;;;;;;0.60;0.60;;;;;;;;;;5059229;28;20218;-84
2022/04/13 01:38:57;;;;;;;0.57;0.57;;;;;;;;;;5060113;28;20197;-83
2022/04/13 01:41:26;;;;;;;0.60;0.60;;;;;;;;;;5060566;28;20571;-83
2022/04/13 01:43:53;;;;;;;0.77;0.77;;;;;;;;;;5060184;28;20205;-83
2022/04/13 01:46:21;;;;;;;1.05;0.93;;;;;;;;;;5061778;28;20417;-84
2022/04/13 01:48:48;;;;;;;0.60;0.60;;;;;;;;;;5060964;28;20259;-83
2022/04/13 01:51:17;;;;;;;0.80;0.80;;;;;;;;;;5080613;28;20225;-83
2022/04/13 01:53:44;;;;;;;0.80;0.80;;;;;;;;;;5080145;28;20603;-84
2022/04/13 01:56:11;;;;;;;0.80;0.80;;;;;;;;;;5079794;28;20221;-84
2022/04/13 01:58:40;;;;;;;0.73;0.70;;;;;;;;;;5077496;28;20207;-84
2022/04/13 02:01:07;;;;;;;0.80;0.80;;;;;;;;;;5077798;28;20283;-84
2022/04/13 02:03:35;;;;;;;1.45;0.63;;;;;;;;;;5077237;28;20580;-85
2022/04/13 02:06:03;;;;;;;0.80;0.80;;;;;;;;;;5076839;28;20228;-83
2022/04/13 02:08:30;;;;;;;0.80;0.80;;;;;;;;;;5077360;28;20639;-84
2022/04/13 02:10:58;;;;;;;0.95;0.95;;;;;;;;;;5076438;28;20227;-84
2022/04/13 02:13:25;;;;;;;1.05;1.05;;;;;;;;;;5078642;28;20231;-83
2022/04/13 02:15:54;;;;;;;1.33;1.33;;;;;;;;;;5078850;28;20220;-83
2022/04/13 02:18:21;;;;;;;1.23;1.13;;;;;;;;;;5079261;28;20201;-84
2022/04/13 02:20:48;;;;;;;1.38;1.00;;;;;;;;;;5079661;28;20277;-84
2022/04/13 02:23:16;;;;;;;1.00;1.00;;;;;;;;;;5077946;28;20207;-82
2022/04/13 02:25:43;;;;;;;0.80;0.80;;;;;;;;;;5079505;28;20228;-83
2022/04/13 02:28:10;;;;;;;0.80;0.80;;;;;;;;;;5079467;28;20201;-82
2022/04/13 02:30:38;;;;;;;1.00;0.90;;;;;;;;;;5079289;28;20205;-84
2022/04/13 02:33:06;;;;;;;1.45;0.93;;;;;;;;;;5079968;28;20224;-83
2022/04/13 02:35:34;;;;;;;1.05;0.93;;;;;;;;;;5079475;28;20231;-83
2022/04/13 02:38:01;;;;;;;0.65;0.65;;;;;;;;;;5078538;28;20210;-83
2022/04/13 02:40:29;;;;;;;0.80;0.80;;;;;;;;;;5078722;28;20205;-82
2022/04/13 02:42:57;;;;;;;0.80;0.80;;;;;;;;;;5079530;28;20645;-83
2022/04/13 02:45:24;;;;;;;0.90;0.90;;;;;;;;;;5078622;28;20229;-83
2022/04/13 02:47:51;;;;;;;0.68;0.68;;;;;;;;;;5078948;28;20670;-84
2022/04/13 02:50:20;;;;;;;0.75;0.75;;;;;;;;;;5078370;28;20204;-82
2022/04/13 02:52:47;;;;;;;0.70;0.70;;;;;;;;;;5078765;28;20217;-83
2022/04/13 02:55:14;;;;;;;1.30;0.90;;;;;;;;;;5078661;28;20208;-83
2022/04/13 02:57:42;;;;;;;0.80;0.80;;;;;;;;;;5078660;28;20201;-83
2022/04/13 03:00:10;;;;;;;0.85;0.85;;;;;;;;;;5078873;28;20201;-83
2022/04/13 03:02:41;;;;;;;1.10;0.95;;;;;;;;;;5079164;28;20653;-82
2022/04/13 03:05:10;;;;;;;1.73;1.63;;;;;;;;;;5077977;28;20189;-83
2022/04/13 03:07:39;;;;;;;1.05;1.05;;;;;;;;;;5077066;28;20203;-84
2022/04/13 03:10:06;;;;;;;1.15;1.00;;;;;;;;;;5078015;28;20208;-84
2022/04/13 03:12:35;;;;;;;1.33;1.23;;;;;;;;;;5077994;28;20593;-84
2022/04/13 03:15:05;;;;;;;1.25;1.25;;;;;;;;;;5078081;28;20722;-84
2022/04/13 03:17:32;;;;;;;1.50;1.40;;;;;;;;;;5078102;28;20185;-83
2022/04/13 03:19:59;;;;;;;1.50;1.40;;;;;;;;;;5078312;28;20209;-83
2022/04/13 03:22:27;;;;;;;1.77;1.67;;;;;;;;;;5077344;28;20193;-83
2022/04/13 03:24:56;;;;;;;1.13;1.13;;;;;;;;;;5077334;28;20630;-83
2022/04/13 03:27:24;;;;;;;1.30;1.20;;;;;;;;;;5077588;28;20728;-83
2022/04/13 03:29:51;;;;;;;1.38;1.27;;;;;;;;;;5077656;28;20236;-84
2022/04/13 03:32:18;;;;;;;1.48;1.38;;;;;;;;;;5077107;28;20350;-84
2022/04/13 03:34:46;;;;;;;1.38;1.27;;;;;;;;;;5077751;28;20212;-84
2022/04/13 03:37:13;;;;;;;1.30;1.20;;;;;;;;;;5078164;28;20725;-84
2022/04/13 03:39:40;;;;;;;1.50;1.40;;;;;;;;;;5080685;28;20197;-84
2022/04/13 03:42:09;;;;;;;1.40;1.30;;;;;;;;;;5080333;28;20219;-83
2022/04/13 03:44:37;;;;;;;1.73;1.00;;;;;;;;;;5080539;28;20205;-86
2022/04/13 03:47:05;;;;;;;1.17;1.08;;;;;;;;;;5082117;28;20220;-83
2022/04/13 03:49:32;;;;;;;0.80;0.80;;;;;;;;;;5081571;28;20711;-83
2022/04/13 03:52:00;;;;;;;0.93;0.93;;;;;;;;;;5080870;28;20622;-82
2022/04/13 03:54:27;;;;;;;1.52;1.42;;;;;;;;;;5081274;28;20204;-84
2022/04/13 03:56:54;;;;;;;1.83;1.63;;;;;;;;;;5080717;28;20279;-83
2022/04/13 03:59:23;;;;;;;1.00;1.00;;;;;;;;;;5079954;28;20205;-84
2022/04/13 04:01:51;;;;;;;1.33;1.23;;;;;;;;;;5081316;28;20264;-84
2022/04/13 04:04:18;;;;;;;1.20;1.10;;;;;;;;;;5082153;28;20205;-84
2022/04/13 04:06:45;;;;;;;0.98;0.98;;;;;;;;;;5079816;28;20630;-84
2022/04/13 04:09:12;;;;;;;1.02;0.90;;;;;;;;;;5079794;28;20201;-83
2022/04/13 04:11:40;;;;;;;0.82;0.82;;;;;;;;;;5079944;28;20827;-81
2022/04/13 04:14:07;;;;;;;1.20;1.20;;;;;;;;;;5080287;28;20204;-83
2022/04/13 04:16:36;;;;;;;1.17;1.08;;;;;;;;;;5080880;28;20225;-82
2022/04/13 04:19:03;;;;;;;1.50;1.40;;;;;;;;;;5079849;28;20208;-84
2022/04/13 04:21:30;;;;;;;1.58;1.45;;;;;;;;;;5081188;28;20204;-83
2022/04/13 04:23:58;;;;;;;2.05;1.50;;;;;;;;;;5079719;28;20205;-84
2022/04/13 04:26:25;;;;;;;1.38;1.27;;;;;;;;;;5081848;28;20227;-83
2022/04/13 04:28:52;;;;;;;1.10;1.00;;;;;;;;;;5083048;28;20201;-83
2022/04/13 04:31:49;;;;;;;0.90;0.90;;;;;;;;;;5083333;28;20205;-84
2022/04/13 04:34:09;;;;;;;1.13;1.00;;;;;;;;;;5080375;28;20228;-84
2022/04/13 04:36:36;;;;;;;1.00;1.00;;;;;;;;;;5078040;28;20217;-86
2022/04/13 04:39:04;;;;;;;1.23;1.15;;;;;;;;;;5077070;28;20205;-85
2022/04/13 04:41:31;;;;;;;1.48;1.38;;;;;;;;;;5076525;28;20205;-85
2022/04/13 04:43:58;;;;;;;1.10;1.00;;;;;;;;;;5077545;28;20200;-85
2022/04/13 04:46:26;;;;;;;1.48;1.38;;;;;;;;;;5084898;28;20290;-83
2022/04/13 04:48:54;;;;;;;1.75;1.38;;;;;;;;;;5083702;28;20197;-83
2022/04/13 04:51:22;;;;;;;2.53;2.33;;;;;;;;;;5083683;28;20557;-83
2022/04/13 04:53:50;;;;;;;2.10;1.90;;;;;;;;;;5083273;28;20228;-83
2022/04/13 04:56:17;;;;;;;1.45;1.35;;;;;;;;;;5083451;28;20229;-84
2022/04/13 04:58:44;;;;;;;1.77;1.60;;;;;;;;;;5083713;28;20212;-83
2022/04/13 05:01:12;;;;;;;2.28;2.10;;;;;;;;;;5083377;28;20200;-83
2022/04/13 05:03:41;;;;;;;1.50;1.40;;;;;;;;;;5083396;28;20652;-84
2022/04/13 05:06:08;;;;;;;2.10;1.92;;;;;;;;;;5083043;28;20232;-84
2022/04/13 05:08:39;;;;;;;2.00;1.77;;;;;;;;;;5084590;28;20208;-83
2022/04/13 05:11:06;;;;;;;2.72;1.95;;;;;;;;;;5083773;28;20200;-83
2022/04/13 05:13:34;;;;;;;2.13;1.90;;;;;;;;;;5083157;28;20407;-84
2022/04/13 05:16:01;;;;;;;2.05;1.95;;;;;;;;;;5084029;28;20221;-84
2022/04/13 05:18:29;;;;;;;1.83;1.73;;;;;;;;;;5083813;28;20208;-84
2022/04/13 05:20:56;;;;;;;1.90;1.75;;;;;;;;;;5083665;28;20579;-85
2022/04/13 05:23:23;;;;;;;2.22;1.80;;;;;;;;;;5082889;28;20197;-84
2022/04/13 05:25:52;;;;;;;1.77;1.67;;;;;;;;;;5083779;28;20220;-84
2022/04/13 05:28:19;;;;;;;2.25;2.08;;;;;;;;;;5083388;28;20204;-85
2022/04/13 05:30:46;;;;;;;2.65;2.28;;;;;;;;;;5083225;28;20197;-84
2022/04/13 05:33:14;;;;;;;3.03;1.77;;;;;;;;;;5082876;28;20872;-84
2022/04/13 05:35:41;;;;;;;2.53;1.95;;;;;;;;;;5081757;28;20278;-83
2022/04/13 05:38:08;;;;;;;2.30;2.10;;;;;;;;;;5074518;28;20686;-83
2022/04/13 05:40:36;;;;;;;2.03;1.70;;;;;;;;;;5080362;28;20205;-84
2022/04/13 05:43:04;;;;;;;2.72;2.20;;;;;;;;;;5083329;28;20212;-84
2022/04/13 05:45:32;;;;;;;2.65;2.45;;;;;;;;;;5079260;28;20605;-82
2022/04/13 05:47:59;;;;;;;2.25;2.05;;;;;;;;;;5075989;28;20213;-82
2022/04/13 05:50:27;;;;;;;2.85;2.45;;;;;;;;;;5075445;28;20201;-82
2022/04/13 05:52:54;;;;;;;1.90;1.80;;;;;;;;;;5076085;28;20196;-82
2022/04/13 05:55:21;;;;;;;1.83;1.55;;;;;;;;;;5076198;28;20204;-83
2022/04/13 05:57:49;;;;;;;1.60;1.50;;;;;;;;;;5075983;28;20677;-84
2022/04/13 06:00:18;;;;;;;3.33;3.03;;;;;;;;;;5076244;28;20205;-82
2022/04/13 06:02:46;;;;;;;2.78;2.58;;;;;;;;;;5075602;28;20696;-82
2022/04/13 06:05:13;;;;;;;2.40;2.20;;;;;;;;;;5076052;28;20212;-82
2022/04/13 06:07:42;;;;;;;2.38;2.17;;;;;;;;;;5075652;28;20659;-82
2022/04/13 06:10:10;;;;;;;2.08;1.92;;;;;;;;;;5075913;28;20201;-81
2022/04/13 06:12:37;;;;;;;3.28;2.30;;;;;;;;;;5075860;28;20194;-82
2022/04/13 06:15:07;;;;;;;2.90;2.38;;;;;;;;;;5078120;28;20205;-82
2022/04/13 06:17:37;;;;;;;2.80;2.45;;;;;;;;;;5076381;28;20208;-83
2022/04/13 06:20:05;;;;;;;2.40;2.20;;;;;;;;;;5075504;28;20204;-82
2022/04/13 06:22:34;;;;;;;2.63;2.38;;;;;;;;;;5075406;28;20204;-82
2022/04/13 06:25:03;;;;;;;2.00;1.85;;;;;;;;;;5075545;28;20205;-82
2022/04/13 06:27:30;;;;;;;2.33;2.10;;;;;;;;;;5074111;28;20209;-82
2022/04/13 06:29:58;;;;;;;1.85;1.75;;;;;;;;;;5073891;28;20597;-82
2022/04/13 06:32:34;;;;;;;1.90;1.60;;;;;;;;;;5074048;28;20216;-82
2022/04/13 06:35:02;;;;;;;2.30;2.10;;;;;;;;;;5075298;28;20216;-82
2022/04/13 06:37:29;;;;;;;2.15;1.95;;;;;;;;;;5075020;28;20204;-82
2022/04/13 06:39:57;;;;;;;2.30;2.10;;;;;;;;;;5074726;28;20212;-82
2022/04/13 06:42:24;;;;;;;1.77;1.67;;;;;;;;;;5074223;28;20209;-81
2022/04/13 06:44:54;;;;;;;1.73;1.63;;;;;;;;;;5074306;28;20208;-82
2022/04/13 06:47:22;;;;;;;2.88;2.50;;;;;;;;;;5074666;28;20225;-82
2022/04/13 06:49:50;;;;;;;3.42;3.05;;;;;;;;;;5075121;28;20216;-82
2022/04/13 06:52:18;;;;;;;4.18;2.83;;;;;;;;;;5074750;28;20208;-82
2022/04/13 06:54:45;;;;;;;2.65;2.45;;;;;;;;;;5075064;28;20232;-81
2022/04/13 06:57:12;;;;;;;3.22;2.70;;;;;;;;;;5074151;28;20754;-81
2022/04/13 06:59:39;;;;;;;3.10;2.80;;;;;;;;;;5074606;28;20646;-81
2022/04/13 07:02:10;;;;;;;3.42;3.13;;;;;;;;;;5074478;28;20211;-81
2022/04/13 07:04:37;;;;;;;3.15;2.75;;;;;;;;;;5074384;28;20197;-81
2022/04/13 07:07:07;;;;;;;3.30;3.00;;;;;;;;;;5073967;28;20282;-82
2022/04/13 07:09:34;;;;;;;3.25;2.60;;;;;;;;;;5073707;28;20204;-81
2022/04/13 07:12:02;;;;;;;2.33;2.00;;;;;;;;;;5073315;28;20181;-81
2022/04/13 07:14:29;;;;;;;2.17;1.98;;;;;;;;;;5074589;28;20240;-82
2022/04/13 07:16:57;;;;;;;4.50;2.83;;;;;;;;;;5074678;28;20593;-83
2022/04/13 07:19:24;;;;;;;2.55;2.35;;;;;;;;;;5075396;28;20636;-83
2022/04/13 07:21:51;;;;;;;2.40;2.15;;;;;;;;;;5074833;28;20208;-83
2022/04/13 07:24:20;;;;;;;2.10;1.80;;;;;;;;;;5074760;28;20201;-82
2022/04/13 07:26:47;;;;;;;2.17;2.00;;;;;;;;;;5074910;28;20233;-83
2022/04/13 07:29:15;;;;;;;3.40;1.92;;;;;;;;;;5074749;28;20654;-82
2022/04/13 07:31:42;;;;;;;2.92;2.20;;;;;;;;;;5073604;28;20681;-83
2022/04/13 07:34:09;;;;;;;4.78;2.65;;;;;;;;;;5073928;28;20604;-82
2022/04/13 07:36:36;;;;;;;4.85;3.60;;;;;;;;;;5073961;28;20709;-83
2022/04/13 07:39:04;;;;;;;3.47;3.17;;;;;;;;;;5074073;28;20201;-83
2022/04/13 07:41:33;;;;;;;4.55;3.30;;;;;;;;;;5073881;28;20200;-82
2022/04/13 07:44:00;;;;;;;3.13;2.83;;;;;;;;;;5073542;28;20251;-82
2022/04/13 07:46:29;;;;;;;3.10;2.65;;;;;;;;;;5073811;28;20221;-82
2022/04/13 07:48:56;;;;;;;3.67;2.97;;;;;;;;;;5073834;28;20733;-82
2022/04/13 07:51:23;;;;;;;2.70;2.50;;;;;;;;;;5073842;28;20201;-82
2022/04/13 07:53:51;;;;;;;3.72;2.92;;;;;;;;;;5074000;28;20609;-82
2022/04/13 07:56:18;;;;;;;2.72;2.45;;;;;;;;;;5074048;28;20667;-82
2022/04/13 07:58:47;;;;;;;3.35;2.70;;;;;;;;;;5073367;28;20250;-82
2022/04/13 08:01:15;;;;;;;4.80;2.97;;;;;;;;;;5073206;28;20727;-82
2022/04/13 08:03:42;;;;;;;2.63;2.42;;;;;;;;;;5074292;28;20224;-83
2022/04/13 08:06:11;;;;;;;3.15;2.72;;;;;;;;;;5073500;28;20244;-83
2022/04/13 08:08:39;;;;;;;2.80;2.45;;;;;;;;;;5073708;28;20205;-83
2022/04/13 08:11:07;;;;;;;3.13;2.30;;;;;;;;;;5067642;28;20197;-83
2022/04/13 08:13:34;;;;;;;2.67;2.47;;;;;;;;;;5061932;28;20662;-83
2022/04/13 08:16:03;;;;;;;3.28;2.30;;;;;;;;;;5064807;28;20225;-83
2022/04/13 08:18:31;;;;;;;2.97;2.67;;;;;;;;;;5058722;28;20198;-83
2022/04/13 08:20:59;;;;;;;3.47;1.98;;;;;;;;;;5060782;28;20273;-83
2022/04/13 08:23:26;;;;;;;3.15;2.10;;;;;;;;;;5061392;28;20272;-83
2022/04/13 08:25:53;;;;;;;4.93;3.10;;;;;;;;;;5062209;28;20225;-83
2022/04/13 08:28:21;;;;;;;2.53;2.10;;;;;;;;;;5065847;28;20228;-83
2022/04/13 08:30:48;;;;;;;2.08;1.65;;;;;;;;;;5062778;28;20198;-81
2022/04/13 08:33:17;;;;;;;2.58;2.38;;;;;;;;;;5063594;28;20197;-83
2022/04/13 08:35:44;;;;;;;3.65;2.28;;;;;;;;;;5060004;28;20224;-83
2022/04/13 08:38:11;;;;;;;3.22;2.35;;;;;;;;;;5067519;28;20190;-83
2022/04/13 08:40:50;;;;;;;1.58;1.48;;;;;;;;;;5067438;28;20651;-83
2022/04/13 08:43:23;;;;;;;1.98;1.77;;;;;;;;;;5067216;28;20192;-84
2022/04/13 08:45:59;;;;;;;1.63;1.52;;;;;;;;;;5056240;28;20222;-84
2022/04/13 08:48:28;;;;;;;2.90;1.90;;;;;;;;;;5056922;28;20189;-82
2022/04/13 08:51:02;;;;;;;2.28;1.83;;;;;;;;;;5072500;28;20300;-83
2022/04/13 08:53:31;;;;;;;1.60;1.50;;;;;;;;;;5075431;28;20300;-83
2022/04/13 08:56:00;;;;;;;2.60;1.90;;;;;;;;;;5075495;28;20623;-83
2022/04/13 08:58:41;;;;;;;2.22;2.03;;;;;;;;;;5075888;28;20210;-83
2022/04/13 09:01:17;;;;;;;1.60;1.42;;;;;;;;;;5076143;28;20181;-83
2022/04/13 09:03:49;;;;;;;2.65;1.60;;;;;;;;;;5069307;28;20197;-83
2022/04/13 09:06:17;;;;;;;1.40;1.30;;;;;;;;;;5055296;28;20229;-83
2022/04/13 09:08:50;;;;;;;2.47;2.28;;;;;;;;;;5069127;28;20212;-83
2022/04/13 09:11:21;;;;;;;1.58;1.48;;;;;;;;;;5074115;28;20207;-83
2022/04/13 09:13:48;;;;;;;2.25;1.70;;;;;;;;;;5074308;28;20597;-83
2022/04/13 09:16:16;;;;;;;1.70;1.60;;;;;;;;;;5073565;28;20354;-83
2022/04/13 09:18:46;;;;;;;1.55;1.45;;;;;;;;;;5074210;28;20546;-83
2022/04/13 09:21:17;;;;;;;1.38;1.20;;;;;;;;;;5074510;28;20201;-83
2022/04/13 09:23:44;;;;;;;1.45;1.35;;;;;;;;;;5076426;28;20561;-84
2022/04/13 09:26:12;;;;;;;1.80;1.48;;;;;;;;;;5076598;28;20267;-84
2022/04/13 09:28:40;;;;;;;1.50;1.40;;;;;;;;;;5076673;28;20205;-84
2022/04/13 09:31:07;;;;;;;2.10;1.40;;;;;;;;;;5062555;28;20201;-83
2022/04/13 09:33:35;;;;;;;2.38;2.17;;;;;;;;;;5061445;28;20189;-84
2022/04/13 09:36:04;;;;;;;1.70;1.60;;;;;;;;;;5062995;28;20221;-84
2022/04/13 09:38:32;;;;;;;1.83;1.73;;;;;;;;;;5063009;28;20205;-84
2022/04/13 09:41:08;;;;;;;1.73;1.52;;;;;;;;;;5067206;28;20186;-84
2022/04/13 09:43:36;;;;;;;1.50;1.40;;;;;;;;;;5066644;28;20195;-84
2022/04/13 09:46:04;;;;;;;1.27;1.10;;;;;;;;;;5070609;28;20220;-84
2022/04/13 09:48:32;;;;;;;1.70;1.60;;;;;;;;;;5066395;28;20186;-84
2022/04/13 09:51:03;;;;;;;2.10;1.90;;;;;;;;;;5074034;28;20199;-84
2022/04/13 09:53:31;;;;;;;1.63;1.52;;;;;;;;;;5074907;28;20189;-83
2022/04/13 09:56:00;;;;;;;3.90;1.92;;;;;;;;;;5069596;28;20217;-83
2022/04/13 09:58:29;;;;;;;2.13;1.92;;;;;;;;;;5059828;28;20190;-84
2022/04/13 10:01:00;;;;;;;3.35;2.13;;;;;;;;;;5069162;28;20204;-83
2022/04/13 10:03:28;;;;;;;1.77;1.67;;;;;;;;;;5069244;28;20247;-84
2022/04/13 10:05:57;;;;;;;1.50;1.40;;;;;;;;;;5062929;28;20249;-84
2022/04/13 10:08:28;;;;;;;1.25;1.20;;;;;;;;;;5065549;28;20201;-82
2022/04/13 10:10:57;;;;;;;1.45;1.35;;;;;;;;;;5063921;28;20198;-85
2022/04/13 10:13:35;;;;;;;1.30;1.20;;;;;;;;;;5056633;28;20194;-84
2022/04/13 10:16:05;;;;;;;1.60;1.50;;;;;;;;;;5054724;28;20236;-85
2022/04/13 10:18:54;;;;;;;2.05;1.95;;;;;;;;;;5053962;28;20197;-84
2022/04/13 10:21:41;;;;;;;1.73;1.63;;;;;;;;;;5056173;28;20186;-85
2022/04/13 10:24:11;;;;;;;2.13;1.98;;;;;;;;;;5056635;28;20189;-84
2022/04/13 10:26:42;;;;;;;2.13;1.95;;;;;;;;;;5068765;28;20225;-85
2022/04/13 10:29:17;;;;;;;2.05;1.38;;;;;;;;;;5075655;28;20197;-85
2022/04/13 10:32:03;;;;;;;1.27;1.17;;;;;;;;;;5075210;28;20196;-85
2022/04/13 10:34:31;;;;;;;2.15;1.95;;;;;;;;;;5076459;28;20228;-85
2022/04/13 10:36:59;;;;;;;1.83;1.73;;;;;;;;;;5076103;28;20225;-86
2022/04/13 10:39:30;;;;;;;2.28;1.80;;;;;;;;;;5077427;28;20628;-85
2022/04/13 10:41:58;;;;;;;2.78;2.15;;;;;;;;;;5077150;28;20262;-85
2022/04/13 10:44:33;;;;;;;1.60;1.50;;;;;;;;;;5076978;28;20560;-85
2022/04/13 10:47:04;;;;;;;1.83;1.50;;;;;;;;;;5072623;28;20220;-86
2022/04/13 10:49:41;;;;;;;1.90;1.80;;;;;;;;;;5073852;28;20201;-86
2022/04/13 10:52:14;;;;;;;2.08;1.88;;;;;;;;;;5052651;28;20715;-85
2022/04/13 10:54:49;;;;;;;2.35;1.77;;;;;;;;;;5067249;28;20246;-85
2022/04/13 10:57:18;;;;;;;2.72;2.17;;;;;;;;;;5073897;28;20282;-83
2022/04/13 10:59:52;;;;;;;2.58;2.38;;;;;;;;;;5075565;28;20674;-85
2022/04/13 11:02:29;;;;;;;2.50;2.20;;;;;;;;;;5072252;28;20203;-86
2022/04/13 11:04:57;;;;;;;1.83;1.73;;;;;;;;;;5072437;28;20205;-86
2022/04/13 11:07:26;;;;;;;1.92;1.63;;;;;;;;;;5072143;28;20236;-87
2022/04/13 11:09:57;;;;;;;2.55;1.95;;;;;;;;;;5072137;28;20204;-85
2022/04/13 11:12:26;;;;;;;1.20;1.10;;;;;;;;;;5072478;28;20213;-86
2022/04/13 11:14:55;;;;;;;2.10;1.90;;;;;;;;;;5072159;28;20673;-87
2022/04/13 11:17:27;;;;;;;2.45;2.25;;;;;;;;;;5071821;28;20231;-88
2022/04/13 11:20:20;;;;;;;2.72;2.33;;;;;;;;;;5072237;28;20250;-87
2022/04/13 11:22:47;;;;;;;2.15;1.92;;;;;;;;;;5071817;28;20297;-86
2022/04/13 11:25:46;;;;;;;2.13;1.92;;;;;;;;;;5071459;28;20212;-85
2022/04/13 11:28:22;;;;;;;1.75;1.65;;;;;;;;;;5065287;28;20197;-86
2022/04/13 11:31:10;;;;;;;1.98;1.67;;;;;;;;;;5066168;28;20209;-86
2022/04/13 11:33:50;;;;;;;1.85;1.33;;;;;;;;;;5071859;28;20201;-85
2022/04/13 11:36:19;;;;;;;1.73;1.63;;;;;;;;;;5072150;28;20565;-85
2022/04/13 11:38:50;;;;;;;1.00;1.00;;;;;;;;;;5071606;28;20606;-85
2022/04/13 11:41:20;;;;;;;1.40;1.30;;;;;;;;;;5071838;28;20201;-86
2022/04/13 11:43:48;;;;;;;1.35;1.25;;;;;;;;;;5064109;28;20251;-86
2022/04/13 11:46:38;;;;;;;3.22;2.53;;;;;;;;;;5073454;28;20231;-85
2022/04/13 11:49:10;;;;;;;1.90;1.80;;;;;;;;;;5069213;28;20241;-85
2022/04/13 11:51:38;;;;;;;2.35;2.10;;;;;;;;;;5073098;28;20236;-85
2022/04/13 11:54:10;;;;;;;2.30;2.10;;;;;;;;;;5074168;28;20216;-86
2022/04/13 11:56:40;;;;;;;2.08;1.88;;;;;;;;;;5072878;28;20233;-86
2022/04/13 11:59:08;;;;;;;2.20;1.60;;;;;;;;;;5077156;28;20208;-85
2022/04/13 12:01:35;;;;;;;1.65;1.55;;;;;;;;;;5077735;28;20205;-86
2022/04/13 12:04:07;;;;;;;1.48;1.38;;;;;;;;;;5077759;28;20219;-86
2022/04/13 12:06:36;;;;;;;2.03;1.92;;;;;;;;;;5077070;28;20236;-87
2022/04/13 12:09:04;;;;;;;2.65;2.45;;;;;;;;;;5078355;28;20228;-85
2022/04/13 12:11:45;;;;;;;1.95;1.85;;;;;;;;;;5079254;28;20197;-85
2022/04/13 12:14:13;;;;;;;2.10;1.80;;;;;;;;;;5077689;28;20255;-85
2022/04/13 12:16:41;;;;;;;2.47;2.28;;;;;;;;;;5077606;28;20225;-85
2022/04/13 12:19:11;;;;;;;1.33;1.23;;;;;;;;;;5078327;28;20199;-85
2022/04/13 12:21:40;;;;;;;1.95;1.85;;;;;;;;;;5078445;28;20208;-85
2022/04/13 12:24:10;;;;;;;1.13;1.10;;;;;;;;;;5079577;28;20645;-86
2022/04/13 12:26:41;;;;;;;1.70;1.60;;;;;;;;;;5079392;28;20283;-85
2022/04/13 12:29:13;;;;;;;1.30;1.20;;;;;;;;;;5078310;28;20208;-85
2022/04/13 12:31:49;;;;;;;1.00;1.00;;;;;;;;;;5077470;28;20272;-86
2022/04/13 12:34:18;;;;;;;1.35;1.27;;;;;;;;;;5077459;28;20247;-85
2022/04/13 12:36:50;;;;;;;2.33;2.13;;;;;;;;;;5078570;28;20236;-85
2022/04/13 12:39:18;;;;;;;1.73;1.63;;;;;;;;;;5077079;28;20323;-86
2022/04/13 12:41:46;;;;;;;1.88;1.65;;;;;;;;;;5077262;28;20205;-86
2022/04/13 12:44:14;;;;;;;2.60;2.40;;;;;;;;;;5076128;28;20193;-87
2022/04/13 12:46:41;;;;;;;2.33;1.80;;;;;;;;;;5076207;28;20270;-86
2022/04/13 12:49:17;;;;;;;1.70;1.60;;;;;;;;;;5076932;28;20197;-85
2022/04/13 12:51:44;;;;;;;3.03;1.65;;;;;;;;;;5075909;28;20261;-86
2022/04/13 12:54:12;;;;;;;2.28;2.03;;;;;;;;;;5075336;28;20209;-87
2022/04/13 12:56:44;;;;;;;2.05;1.85;;;;;;;;;;5075622;28;20225;-86
2022/04/13 12:59:19;;;;;;;2.38;1.85;;;;;;;;;;5075373;28;20221;-86
2022/04/13 13:01:49;;;;;;;1.92;1.83;;;;;;;;;;5074729;28;20295;-86
2022/04/13 13:04:18;;;;;;;1.67;1.40;;;;;;;;;;5075812;28;20296;-86
2022/04/13 13:06:58;;;;;;;2.25;2.05;;;;;;;;;;5062744;28;20256;-86
2022/04/13 13:09:30;;;;;;;1.95;1.75;;;;;;;;;;5075452;28;20284;-86
2022/04/13 13:11:59;;;;;;;1.35;1.25;;;;;;;;;;5076858;28;20201;-86
2022/04/13 13:14:34;;;;;;;1.60;1.50;;;;;;;;;;5075865;28;20220;-86
2022/04/13 13:17:16;;;;;;;1.48;1.38;;;;;;;;;;5076785;28;20681;-85
2022/04/13 13:19:44;;;;;;;1.58;1.48;;;;;;;;;;5076805;28;20225;-85
2022/04/13 13:22:13;;;;;;;1.55;1.45;;;;;;;;;;5075293;28;20201;-86
2022/04/13 13:24:57;;;;;;;4.15;2.03;;;;;;;;;;5075298;28;20300;-87
2022/04/13 13:27:27;;;;;;;2.30;1.90;;;;;;;;;;5071689;28;20217;-85
2022/04/13 13:29:58;;;;;;;2.10;1.95;;;;;;;;;;5075875;28;20205;-86
2022/04/13 13:32:29;;;;;;;1.58;1.48;;;;;;;;;;5076657;28;20213;-86
2022/04/13 13:34:58;;;;;;;1.77;1.67;;;;;;;;;;5075956;28;20637;-85
2022/04/13 13:37:30;;;;;;;3.03;2.20;;;;;;;;;;5075191;28;20571;-86
2022/04/13 13:39:57;;;;;;;1.55;1.42;;;;;;;;;;5076031;28;20220;-86
2022/04/13 13:42:25;;;;;;;1.17;1.15;;;;;;;;;;5074990;28;20216;-86
2022/04/13 13:44:52;;;;;;;2.13;1.90;;;;;;;;;;5075882;28;20203;-86
2022/04/13 13:47:21;;;;;;;1.90;1.70;;;;;;;;;;5076022;28;20229;-85
2022/04/13 13:49:48;;;;;;;1.85;1.45;;;;;;;;;;5076627;28;20208;-85
2022/04/13 13:52:16;;;;;;;1.50;1.40;;;;;;;;;;5076297;28;20206;-85
2022/04/13 13:54:43;;;;;;;1.33;1.25;;;;;;;;;;5076895;28;20208;-85
2022/04/13 13:57:10;;;;;;;1.80;1.70;;;;;;;;;;5076868;28;20225;-85
2022/04/13 13:59:37;;;;;;;2.30;2.08;;;;;;;;;;5076479;28;20235;-86
2022/04/13 14:02:05;;;;;;;1.52;1.42;;;;;;;;;;5078702;28;20205;-85
2022/04/13 14:04:34;;;;;;;2.13;1.92;;;;;;;;;;5077911;28;20200;-86
2022/04/13 14:07:01;;;;;;;1.65;1.52;;;;;;;;;;5077361;28;20233;-86
2022/04/13 14:09:28;;;;;;;1.88;1.77;;;;;;;;;;5077222;28;20212;-86
2022/04/13 14:11:56;;;;;;;2.28;1.70;;;;;;;;;;5077694;28;20205;-85
2022/04/13 14:14:23;;;;;;;1.52;1.42;;;;;;;;;;5077727;28;20208;-88
2022/04/13 14:16:53;;;;;;;2.03;1.92;;;;;;;;;;5077137;28;20248;-86
2022/04/13 14:19:20;;;;;;;2.00;1.67;;;;;;;;;;5077065;28;20224;-86
2022/04/13 14:21:49;;;;;;;2.90;2.03;;;;;;;;;;5076376;28;20205;-86
2022/04/13 14:24:16;;;;;;;1.90;1.70;;;;;;;;;;5076325;28;20213;-86
2022/04/13 14:26:44;;;;;;;2.38;1.80;;;;;;;;;;5077076;28;20749;-87
2022/04/13 14:29:11;;;;;;;1.65;1.55;;;;;;;;;;5076790;28;20200;-86
2022/04/13 14:31:38;;;;;;;1.30;1.20;;;;;;;;;;5077446;28;20211;-86
2022/04/13 14:34:06;;;;;;;1.48;1.38;;;;;;;;;;5076634;28;20642;-85
2022/04/13 14:36:33;;;;;;;1.73;1.63;;;;;;;;;;5076515;28;20716;-85
2022/04/13 14:39:02;;;;;;;1.48;1.40;;;;;;;;;;5076227;28;20216;-86
2022/04/13 14:41:29;;;;;;;3.83;2.30;;;;;;;;;;5074727;28;20262;-85
2022/04/13 14:43:56;;;;;;;2.00;1.80;;;;;;;;;;5075655;28;20197;-86
2022/04/13 14:46:25;;;;;;;2.17;1.98;;;;;;;;;;5076103;28;20224;-86
2022/04/13 14:48:53;;;;;;;2.80;2.00;;;;;;;;;;5076722;28;20646;-86
2022/04/13 14:51:20;;;;;;;2.33;2.13;;;;;;;;;;5076685;28;20208;-87
2022/04/13 14:53:50;;;;;;;2.95;2.65;;;;;;;;;;5075498;28;20227;-85
2022/04/13 14:56:19;;;;;;;2.53;2.33;;;;;;;;;;5076405;28;20266;-85